Anzahl Datensätze: 144
min. Temperatur: -1.7 °C
max. Temperatur: 8.6 °C
max. Windgeschwindigkeit: 30.6 km/h
Niederschlagsumme: 7.0 mm
| Datum |
Zeit |
Temp °C |
Feuchte % |
Taupunkt °C |
Luftdruck hPa |
Wind km/h |
Windrichtung |
Strahlung w/m² |
Niederschlag mm |
|---|---|---|---|---|---|---|---|---|---|
| 15.03.2026 | 00:00 | -0.3 | 95 | -1.0 | 1011.1 | 0.0 | WSW | 0 | 7.0 |
| 15.03.2026 | 00:10 | -0.3 | 96 | -0.9 | 1011.2 | 0.0 | WSW | 0 | 0.0 |
| 15.03.2026 | 00:20 | -0.2 | 96 | -0.8 | 1011.3 | 0.0 | WSW | 0 | 0.0 |
| 15.03.2026 | 00:30 | -0.5 | 95 | -1.2 | 1011.3 | 0.0 | WSW | 0 | 0.0 |
| 15.03.2026 | 00:40 | -0.7 | 96 | -1.3 | 1011.5 | 0.0 | WSW | 0 | 0.0 |
| 15.03.2026 | 00:50 | -0.6 | 96 | -1.2 | 1011.7 | 0.0 | WSW | 0 | 0.0 |
| 15.03.2026 | 01:00 | -0.1 | 96 | -0.7 | 1011.7 | 0.0 | W | 0 | 0.0 |
| 15.03.2026 | 01:10 | 0.1 | 96 | -0.5 | 1011.7 | 0.0 | WNW | 0 | 0.0 |
| 15.03.2026 | 01:20 | 0.2 | 96 | -0.4 | 1012.0 | 0.0 | WNW | 0 | 0.0 |
| 15.03.2026 | 01:30 | 0.2 | 96 | -0.4 | 1012.1 | 0.0 | WNW | 0 | 0.0 |
| 15.03.2026 | 01:40 | 0.1 | 96 | -0.5 | 1012.3 | 0.0 | WNW | 0 | 0.0 |
| 15.03.2026 | 01:50 | 0.1 | 96 | -0.5 | 1012.4 | 0.0 | WNW | 0 | 0.0 |
| 15.03.2026 | 02:00 | -0.3 | 96 | -0.9 | 1012.5 | 0.0 | WNW | 0 | 0.0 |
| 15.03.2026 | 02:10 | -0.6 | 95 | -1.3 | 1012.6 | 0.0 | WNW | 0 | 0.0 |
| 15.03.2026 | 02:20 | -0.7 | 96 | -1.3 | 1012.7 | 0.0 | WNW | 0 | 0.0 |
| 15.03.2026 | 02:30 | -0.7 | 96 | -1.3 | 1012.7 | 0.0 | WNW | 0 | 0.0 |
| 15.03.2026 | 02:40 | -0.9 | 96 | -1.5 | 1012.9 | 0.0 | WNW | 0 | 0.0 |
| 15.03.2026 | 02:50 | -1.1 | 96 | -1.7 | 1013.0 | 0.0 | WNW | 0 | 0.0 |
| 15.03.2026 | 03:00 | -1.2 | 96 | -1.8 | 1013.2 | 0.0 | WNW | 0 | 0.0 |
| 15.03.2026 | 03:10 | -1.3 | 96 | -1.9 | 1013.2 | 0.0 | WNW | 0 | 0.0 |
| 15.03.2026 | 03:20 | -1.4 | 96 | -2.0 | 1013.1 | 0.0 | WNW | 0 | 0.0 |
| 15.03.2026 | 03:30 | -1.4 | 96 | -2.0 | 1013.5 | 0.0 | WNW | 0 | 0.0 |
| 15.03.2026 | 03:40 | -1.6 | 96 | -2.2 | 1013.6 | 0.0 | WNW | 0 | 0.0 |
| 15.03.2026 | 03:50 | -1.7 | 96 | -2.3 | 1013.7 | 0.0 | WNW | 0 | 0.0 |
| 15.03.2026 | 04:00 | -1.7 | 96 | -2.3 | 1013.9 | 0.0 | WNW | 0 | 0.0 |
| 15.03.2026 | 04:10 | -1.1 | 96 | -1.7 | 1014.0 | 0.0 | WNW | 0 | 0.0 |
| 15.03.2026 | 04:20 | -1.1 | 96 | -1.7 | 1014.1 | 0.0 | WNW | 0 | 0.0 |
| 15.03.2026 | 04:30 | -0.9 | 96 | -1.5 | 1014.2 | 0.0 | WNW | 0 | 0.0 |
| 15.03.2026 | 04:40 | -0.7 | 96 | -1.3 | 1014.2 | 0.0 | WNW | 0 | 0.0 |
| 15.03.2026 | 04:50 | -0.7 | 96 | -1.3 | 1014.3 | 0.0 | WNW | 0 | 0.0 |
| 15.03.2026 | 05:00 | -0.4 | 96 | -1.0 | 1014.3 | 0.0 | WNW | 0 | 0.0 |
| 15.03.2026 | 05:10 | -0.5 | 96 | -1.1 | 1014.5 | 0.0 | WNW | 0 | 0.0 |
| 15.03.2026 | 05:20 | -0.6 | 96 | -1.2 | 1014.7 | 0.0 | WNW | 0 | 0.0 |
| 15.03.2026 | 05:30 | -0.7 | 96 | -1.3 | 1014.8 | 0.0 | WNW | 0 | 0.0 |
| 15.03.2026 | 05:40 | -1.5 | 96 | -2.1 | 1014.9 | 0.0 | WNW | 0 | 0.0 |
| 15.03.2026 | 05:50 | -1.7 | 96 | -2.3 | 1015.1 | 0.0 | WNW | 0 | 0.0 |
| 15.03.2026 | 06:00 | -1.5 | 96 | -2.1 | 1015.0 | 0.0 | WNW | 0 | 0.0 |
| 15.03.2026 | 06:10 | -1.2 | 96 | -1.8 | 1015.2 | 0.0 | WNW | 0 | 0.0 |
| 15.03.2026 | 06:20 | -1.4 | 96 | -2.0 | 1015.4 | 0.0 | WNW | 0 | 0.0 |
| 15.03.2026 | 06:30 | -1.3 | 96 | -1.9 | 1015.4 | 0.0 | WNW | 0 | 0.0 |
| 15.03.2026 | 06:40 | -1.2 | 96 | -1.8 | 1015.7 | 0.0 | WNW | 0 | 0.0 |
| 15.03.2026 | 06:50 | -1.7 | 96 | -2.3 | 1016.0 | 0.0 | WNW | 0 | 0.0 |
| 15.03.2026 | 07:00 | -1.7 | 96 | -2.3 | 1016.2 | 0.0 | WNW | 5 | 0.0 |
| 15.03.2026 | 07:10 | -1.6 | 96 | -2.2 | 1016.3 | 0.0 | WNW | 11 | 0.0 |
| 15.03.2026 | 07:20 | -1.2 | 96 | -1.8 | 1016.3 | 0.0 | WNW | 16 | 0.0 |
| 15.03.2026 | 07:30 | -1.3 | 96 | -1.9 | 1016.4 | 0.0 | WNW | 19 | 0.0 |
| 15.03.2026 | 07:40 | -0.7 | 96 | -1.3 | 1016.6 | 0.0 | WNW | 46 | 0.0 |
| 15.03.2026 | 07:50 | -0.3 | 97 | -0.7 | 1016.9 | 0.0 | WNW | 32 | 0.0 |
| 15.03.2026 | 08:00 | -0.4 | 96 | -1.0 | 1016.9 | 0.0 | WNW | 56 | 0.0 |
| 15.03.2026 | 08:10 | -0.4 | 96 | -1.0 | 1017.2 | 0.0 | WNW | 69 | 0.0 |
| 15.03.2026 | 08:20 | -0.4 | 96 | -1.0 | 1017.1 | 0.0 | WNW | 107 | 0.0 |
| 15.03.2026 | 08:30 | -0.1 | 97 | -0.5 | 1017.2 | 0.0 | WNW | 102 | 0.0 |
| 15.03.2026 | 08:40 | 0.3 | 97 | -0.1 | 1017.2 | 0.0 | WNW | 158 | 0.0 |
| 15.03.2026 | 08:50 | 1.1 | 97 | 0.7 | 1017.5 | 0.0 | WNW | 294 | 0.0 |
| 15.03.2026 | 09:00 | 1.2 | 97 | 0.8 | 1017.5 | 0.0 | WNW | 390 | 0.4 |
| 15.03.2026 | 09:10 | 2.0 | 97 | 1.6 | 1017.6 | 0.0 | WNW | 323 | 0.4 |
| 15.03.2026 | 09:20 | 2.6 | 97 | 2.2 | 1017.7 | 0.0 | WNW | 318 | 0.4 |
| 15.03.2026 | 09:30 | 2.7 | 95 | 2.0 | 1017.6 | 0.0 | WNW | 332 | 0.4 |
| 15.03.2026 | 09:40 | 3.0 | 93 | 2.0 | 1017.6 | 1.4 | NNO | 387 | 0.4 |
| 15.03.2026 | 09:50 | 3.3 | 91 | 2.0 | 1017.8 | 1.4 | N | 329 | 0.4 |
| 15.03.2026 | 10:00 | 3.6 | 90 | 2.1 | 1017.7 | 0.0 | N | 111 | 0.4 |
| 15.03.2026 | 10:10 | 4.1 | 87 | 2.1 | 1017.9 | 1.4 | N | 418 | 0.4 |
| 15.03.2026 | 10:20 | 4.6 | 84 | 2.1 | 1017.8 | 1.4 | NNO | 364 | 0.4 |
| 15.03.2026 | 10:30 | 4.5 | 79 | 1.2 | 1018.0 | 3.2 | NNO | 417 | 0.4 |
| 15.03.2026 | 10:40 | 4.3 | 81 | 1.3 | 1018.0 | 4.7 | NNO | 200 | 0.4 |
| 15.03.2026 | 10:50 | 4.6 | 79 | 1.3 | 1018.1 | 3.2 | NNO | 591 | 0.4 |
| 15.03.2026 | 11:00 | 4.6 | 74 | 0.4 | 1018.1 | 3.2 | N | 269 | 0.4 |
| 15.03.2026 | 11:10 | 4.7 | 77 | 1.0 | 1018.1 | 1.4 | NNO | 341 | 0.4 |
| 15.03.2026 | 11:20 | 4.7 | 77 | 1.0 | 1018.1 | 4.7 | NNO | 202 | 0.4 |
| 15.03.2026 | 11:30 | 4.6 | 76 | 0.7 | 1017.9 | 3.2 | NO | 373 | 0.4 |
| 15.03.2026 | 11:40 | 5.1 | 76 | 1.2 | 1018.0 | 1.4 | NNO | 803 | 0.4 |
| 15.03.2026 | 11:50 | 5.1 | 74 | 0.8 | 1018.1 | 3.2 | NNO | 826 | 0.4 |
| 15.03.2026 | 12:00 | 5.7 | 72 | 1.0 | 1017.9 | 1.4 | N | 664 | 0.4 |
| 15.03.2026 | 12:10 | 5.9 | 69 | 0.6 | 1018.0 | 0.0 | O | 708 | 0.4 |
| 15.03.2026 | 12:20 | 6.1 | 70 | 1.0 | 1017.9 | 0.0 | O | 745 | 0.4 |
| 15.03.2026 | 12:30 | 6.6 | 70 | 1.5 | 1017.9 | 0.0 | SSO | 700 | 0.4 |
| 15.03.2026 | 12:40 | 7.4 | 68 | 1.9 | 1017.9 | 0.0 | O | 715 | 0.4 |
| 15.03.2026 | 12:50 | 6.3 | 68 | 0.8 | 1017.9 | 1.4 | ONO | 387 | 0.4 |
| 15.03.2026 | 13:00 | 5.9 | 72 | 1.2 | 1017.9 | 3.2 | NO | 299 | 0.4 |
| 15.03.2026 | 13:10 | 5.8 | 72 | 1.1 | 1017.8 | 3.2 | NNO | 216 | 0.4 |
| 15.03.2026 | 13:20 | 5.7 | 70 | 0.7 | 1017.8 | 1.4 | NNO | 214 | 0.4 |
| 15.03.2026 | 13:30 | 5.7 | 69 | 0.5 | 1017.8 | 1.4 | ONO | 243 | 0.4 |
| 15.03.2026 | 13:40 | 5.8 | 69 | 0.6 | 1017.9 | 0.0 | ONO | 248 | 0.4 |
| 15.03.2026 | 13:50 | 6.1 | 67 | 0.4 | 1017.9 | 0.0 | SSO | 216 | 0.4 |
| 15.03.2026 | 14:00 | 6.1 | 68 | 0.6 | 1017.9 | 0.0 | SO | 244 | 0.4 |
| 15.03.2026 | 14:10 | 6.4 | 66 | 0.5 | 1017.7 | 0.0 | SO | 241 | 0.4 |
| 15.03.2026 | 14:20 | 6.7 | 64 | 0.4 | 1017.8 | 0.0 | W | 306 | 0.4 |
| 15.03.2026 | 14:30 | 6.8 | 68 | 1.3 | 1017.8 | 0.0 | ONO | 759 | 0.4 |
| 15.03.2026 | 14:40 | 7.7 | 63 | 1.1 | 1017.7 | 1.4 | WNW | 721 | 0.4 |
| 15.03.2026 | 14:50 | 7.9 | 60 | 0.6 | 1017.7 | 1.4 | SO | 657 | 0.4 |
| 15.03.2026 | 15:00 | 8.0 | 57 | 0.0 | 1017.7 | 4.7 | SW | 610 | 0.4 |
| 15.03.2026 | 15:10 | 8.2 | 58 | 0.4 | 1017.8 | 3.2 | WSW | 105 | 0.4 |
| 15.03.2026 | 15:20 | 7.3 | 62 | 0.5 | 1017.7 | 1.4 | WSW | 605 | 0.4 |
| 15.03.2026 | 15:30 | 7.8 | 62 | 1.0 | 1017.7 | 0.0 | WNW | 584 | 0.4 |
| 15.03.2026 | 15:40 | 8.1 | 59 | 0.6 | 1017.7 | 0.0 | W | 545 | 0.4 |
| 15.03.2026 | 15:50 | 7.7 | 59 | 0.2 | 1017.6 | 3.2 | WSW | 132 | 0.4 |
| 15.03.2026 | 16:00 | 7.9 | 61 | 0.8 | 1017.7 | 0.0 | WNW | 485 | 0.4 |
| 15.03.2026 | 16:10 | 8.3 | 60 | 1.0 | 1017.6 | 0.0 | O | 469 | 0.4 |
| 15.03.2026 | 16:20 | 8.4 | 58 | 0.6 | 1017.7 | 3.2 | SSW | 445 | 0.4 |
| 15.03.2026 | 16:30 | 8.6 | 56 | 0.3 | 1017.5 | 1.4 | SSO | 132 | 0.4 |
| 15.03.2026 | 16:40 | 8.2 | 58 | 0.4 | 1017.6 | 1.4 | W | 229 | 0.4 |
| 15.03.2026 | 16:50 | 8.2 | 59 | 0.7 | 1017.5 | 1.4 | S | 322 | 0.4 |
| 15.03.2026 | 17:00 | 8.3 | 59 | 0.8 | 1017.6 | 0.0 | SW | 76 | 0.4 |
| 15.03.2026 | 17:10 | 8.3 | 60 | 1.0 | 1017.5 | 0.0 | SW | 230 | 0.4 |
| 15.03.2026 | 17:20 | 8.2 | 58 | 0.4 | 1017.6 | 1.4 | SSO | 185 | 0.4 |
| 15.03.2026 | 17:30 | 8.0 | 60 | 0.7 | 1017.8 | 0.0 | SW | 44 | 0.4 |
| 15.03.2026 | 17:40 | 7.7 | 61 | 0.7 | 1017.7 | 0.0 | SW | 104 | 0.4 |
| 15.03.2026 | 17:50 | 7.5 | 61 | 0.5 | 1017.8 | 0.0 | SSW | 67 | 0.4 |
| 15.03.2026 | 18:00 | 7.2 | 63 | 0.6 | 1018.1 | 1.4 | SW | 37 | 0.4 |
| 15.03.2026 | 18:10 | 6.8 | 65 | 0.7 | 1018.1 | 0.0 | S | 26 | 0.4 |
| 15.03.2026 | 18:20 | 6.4 | 66 | 0.5 | 1018.2 | 0.0 | S | 16 | 0.4 |
| 15.03.2026 | 18:30 | 6.2 | 67 | 0.5 | 1018.1 | 0.0 | SSW | 9 | 0.4 |
| 15.03.2026 | 18:40 | 5.9 | 69 | 0.6 | 1018.1 | 0.0 | SSW | 0 | 0.4 |
| 15.03.2026 | 18:50 | 5.7 | 70 | 0.7 | 1018.2 | 0.0 | SSW | 0 | 0.4 |
| 15.03.2026 | 19:00 | 5.4 | 70 | 0.4 | 1018.2 | 0.0 | S | 0 | 0.4 |
| 15.03.2026 | 19:10 | 5.2 | 71 | 0.4 | 1018.3 | 0.0 | S | 0 | 0.4 |
| 15.03.2026 | 19:20 | 5.1 | 71 | 0.3 | 1018.2 | 0.0 | S | 0 | 0.4 |
| 15.03.2026 | 19:30 | 4.8 | 72 | 0.2 | 1018.2 | 0.0 | SSW | 0 | 0.4 |
| 15.03.2026 | 19:40 | 4.6 | 73 | 0.2 | 1018.2 | 0.0 | SSW | 0 | 0.4 |
| 15.03.2026 | 19:50 | 4.6 | 73 | 0.2 | 1018.2 | 0.0 | SSW | 0 | 0.4 |
| 15.03.2026 | 20:00 | 4.3 | 74 | 0.1 | 1018.2 | 0.0 | SSW | 0 | 0.4 |
| 15.03.2026 | 20:10 | 4.3 | 73 | -0.1 | 1018.1 | 0.0 | SSW | 0 | 0.4 |
| 15.03.2026 | 20:20 | 4.1 | 74 | -0.1 | 1018.0 | 0.0 | SSW | 0 | 0.4 |
| 15.03.2026 | 20:30 | 3.9 | 75 | -0.1 | 1018.0 | 0.0 | SW | 0 | 0.4 |
| 15.03.2026 | 20:40 | 3.9 | 75 | -0.1 | 1017.8 | 0.0 | S | 0 | 0.4 |
| 15.03.2026 | 20:50 | 3.8 | 75 | -0.2 | 1017.8 | 0.0 | S | 0 | 0.4 |
| 15.03.2026 | 21:00 | 3.6 | 75 | -0.4 | 1017.8 | 0.0 | SSO | 0 | 0.4 |
| 15.03.2026 | 21:10 | 3.6 | 76 | -0.2 | 1017.7 | 1.4 | SSO | 0 | 0.4 |
| 15.03.2026 | 21:20 | 3.3 | 77 | -0.3 | 1017.7 | 0.0 | S | 0 | 0.4 |
| 15.03.2026 | 21:30 | 3.4 | 77 | -0.2 | 1017.8 | 0.0 | S | 0 | 0.4 |
| 15.03.2026 | 21:40 | 3.2 | 78 | -0.3 | 1017.8 | 0.0 | S | 0 | 0.4 |
| 15.03.2026 | 21:50 | 3.4 | 78 | -0.1 | 1017.9 | 0.0 | S | 0 | 0.4 |
| 15.03.2026 | 22:00 | 3.4 | 78 | -0.1 | 1018.0 | 0.0 | SSW | 0 | 0.4 |
| 15.03.2026 | 22:10 | 2.9 | 79 | -0.4 | 1018.1 | 1.4 | S | 0 | 0.4 |
| 15.03.2026 | 22:20 | 2.7 | 80 | -0.4 | 1018.3 | 1.4 | SSW | 0 | 0.4 |
| 15.03.2026 | 22:30 | 2.9 | 80 | -0.2 | 1018.2 | 1.4 | SSW | 0 | 0.4 |
| 15.03.2026 | 22:40 | 3.2 | 79 | -0.1 | 1017.9 | 1.4 | SSW | 0 | 0.4 |
| 15.03.2026 | 22:50 | 3.6 | 77 | -0.1 | 1017.7 | 1.4 | SW | 0 | 0.4 |
| 15.03.2026 | 23:00 | 3.7 | 77 | 0.0 | 1017.4 | 1.4 | S | 0 | 0.4 |
| 15.03.2026 | 23:10 | 3.7 | 78 | 0.2 | 1017.0 | 1.4 | SO | 0 | 0.4 |
| 15.03.2026 | 23:20 | 3.8 | 78 | 0.3 | 1016.8 | 1.4 | SSO | 0 | 0.4 |
| 15.03.2026 | 23:30 | 3.9 | 78 | 0.4 | 1016.3 | 7.9 | SSO | 0 | 0.4 |
| 15.03.2026 | 23:40 | 3.8 | 78 | 0.3 | 1016.6 | 3.2 | SW | 0 | 0.4 |
| 15.03.2026 | 23:50 | 3.8 | 78 | 0.3 | 1016.4 | 1.4 | S | 0 | 0.4 |